createdAt,value
2023-04-02T00:02:33.663Z,98293.17
2023-04-02T00:05:43.349Z,98293.45
2023-04-02T00:08:44.968Z,98294.52
2023-04-02T00:11:48.515Z,98297.34
2023-04-02T00:14:54.638Z,98296.43
2023-04-02T00:17:57.380Z,98301.39
2023-04-02T00:21:08.405Z,98305.41
2023-04-02T00:24:21.349Z,98310.27
2023-04-02T00:27:26.208Z,98312.02
2023-04-02T00:30:28.288Z,98316.58
2023-04-02T00:33:46.989Z,98317.61
2023-04-02T00:36:49.470Z,98321.63
2023-04-02T00:39:53.023Z,98324.60
2023-04-02T00:42:58.372Z,98325.01
2023-04-02T00:46:08.587Z,98326.48
2023-04-02T00:49:23.970Z,98327.06
2023-04-02T00:52:28.395Z,98329.60
2023-04-02T00:55:37.087Z,98331.09
2023-04-02T00:58:40.198Z,98329.13
2023-04-02T01:01:41.846Z,98335.41
2023-04-02T01:04:52.758Z,98337.91
2023-04-02T01:08:21.310Z,98339.91
2023-04-02T01:11:41.574Z,98346.90
2023-04-02T01:14:57.851Z,98348.23
2023-04-02T01:18:11.556Z,98350.63
2023-04-02T01:21:19.135Z,98351.96
2023-04-02T01:24:21.490Z,98356.15
2023-04-02T01:27:29.544Z,98353.21
2023-04-02T01:30:33.197Z,98359.39
2023-04-02T01:33:35.197Z,98359.31
2023-04-02T01:36:39.759Z,98362.33
2023-04-02T01:40:19.523Z,98362.93
2023-04-02T01:43:51.279Z,98365.98
2023-04-02T01:46:52.858Z,98368.08
2023-04-02T01:50:19.710Z,98372.75
2023-04-02T01:53:23.313Z,98376.95
2023-04-02T01:56:26.575Z,98379.06
2023-04-02T01:59:28.637Z,98382.79
2023-04-02T02:02:30.273Z,98384.94
2023-04-02T02:05:32.465Z,98388.17
2023-04-02T02:08:40.097Z,98392.79
2023-04-02T02:11:41.791Z,98393.63
2023-04-02T02:14:48.752Z,98394.94
2023-04-02T02:17:51.130Z,98396.97
2023-04-02T02:20:53.628Z,98396.23
2023-04-02T02:23:55.716Z,98394.20
2023-04-02T02:27:23.551Z,98394.54
2023-04-02T02:30:48.176Z,98396.39
2023-04-02T02:33:51.772Z,98397.88
2023-04-02T02:36:59.001Z,98397.45
2023-04-02T02:40:01.386Z,98402.39
2023-04-02T02:43:04.426Z,98403.01
2023-04-02T02:46:08.026Z,98406.75
2023-04-02T02:49:17.955Z,98411.67
2023-04-02T02:52:23.111Z,98412.15
2023-04-02T02:55:28.711Z,98414.48
2023-04-02T02:58:31.691Z,98420.58
2023-04-02T03:01:33.499Z,98421.54
2023-04-02T03:04:36.098Z,98424.95
2023-04-02T03:07:38.072Z,98427.83
2023-04-02T03:10:45.613Z,98426.02
2023-04-02T03:13:49.364Z,98427.42
2023-04-02T03:16:56.609Z,98427.89
2023-04-02T03:20:03.977Z,98430.79
2023-04-02T03:23:27.261Z,98433.86
2023-04-02T03:26:52.891Z,98438.58
2023-04-02T03:30:27.394Z,98443.43
2023-04-02T03:33:41.758Z,98446.33
2023-04-02T03:37:02.504Z,98449.98
2023-04-02T03:40:05.355Z,98451.70
2023-04-02T03:43:18.701Z,98452.19
2023-04-02T03:46:31.744Z,98452.70
2023-04-02T03:49:43.306Z,98457.42
2023-04-02T03:52:45.063Z,98462.38
2023-04-02T03:55:46.736Z,98463.48
2023-04-02T03:58:50.203Z,98469.56
2023-04-02T04:02:27.092Z,98473.27
2023-04-02T04:05:44.109Z,98471.32
2023-04-02T04:08:48.966Z,98475.55
2023-04-02T04:12:17.623Z,98476.91
2023-04-02T04:15:22.787Z,98480.81
2023-04-02T04:18:45.137Z,98483.98
2023-04-02T04:21:46.824Z,98485.02
2023-04-02T04:24:48.576Z,98490.40
2023-04-02T04:28:11.780Z,98496.41
2023-04-02T04:31:22.829Z,98498.27
2023-04-02T04:34:35.219Z,98501.78
2023-04-02T04:37:39.861Z,98503.95
2023-04-02T04:40:49.030Z,98501.73
2023-04-02T04:44:04.018Z,98505.83
2023-04-02T04:47:15.367Z,98512.04
2023-04-02T04:50:29.128Z,98515.50
2023-04-02T04:53:31.574Z,98519.84
2023-04-02T04:56:33.325Z,98519.36
2023-04-02T04:59:52.581Z,98524.74
2023-04-02T05:03:06.592Z,98527.88
2023-04-02T05:06:32.341Z,98533.46
2023-04-02T05:09:52.781Z,98539.35
2023-04-02T05:13:17.597Z,98541.30
2023-04-02T05:16:24.242Z,98544.13
2023-04-02T05:19:46.371Z,98544.94
2023-04-02T05:22:53.425Z,98554.44
2023-04-02T05:26:06.747Z,98560.76
2023-04-02T05:29:16.188Z,98562.59
2023-04-02T05:32:23.286Z,98562.38
2023-04-02T05:35:31.258Z,98567.03
2023-04-02T05:38:35.833Z,98567.55
2023-04-02T05:41:43.371Z,98569.60
2023-04-02T05:44:57.820Z,98572.98
2023-04-02T05:48:01.931Z,98573.83
2023-04-02T05:51:06.237Z,98572.13
2023-04-02T05:54:17.243Z,98571.21
2023-04-02T05:57:29.619Z,98572.52
2023-04-02T06:00:51.878Z,98572.99
2023-04-02T06:04:06.613Z,98573.60
2023-04-02T06:07:16.011Z,98572.25
2023-04-02T06:10:25.010Z,98572.80
2023-04-02T06:13:27.532Z,98576.73
2023-04-02T06:16:30.262Z,98582.58
2023-04-02T06:19:37.581Z,98585.89
2023-04-02T06:22:40.305Z,98591.84
2023-04-02T06:25:49.648Z,98593.04
2023-04-02T06:29:14.449Z,98593.27
2023-04-02T06:32:16.180Z,98597.34
2023-04-02T06:35:17.851Z,98601.11
2023-04-02T06:38:24.335Z,98604.50
2023-04-02T06:41:25.981Z,98610.25
2023-04-02T06:44:30.435Z,98614.19
2023-04-02T06:47:37.832Z,98619.89
2023-04-02T06:50:55.268Z,98623.87
2023-04-02T06:53:56.871Z,98629.83
2023-04-02T06:56:59.021Z,98631.19
2023-04-02T07:00:01.005Z,98631.27
2023-04-02T07:03:06.474Z,98636.01
2023-04-02T07:06:17.908Z,98639.91
2023-04-02T07:09:19.653Z,98644.82
2023-04-02T07:12:25.229Z,98646.11
2023-04-02T07:15:26.776Z,98648.80
2023-04-02T07:18:31.859Z,98648.90
2023-04-02T07:21:33.408Z,98650.98
2023-04-02T07:24:34.985Z,98654.48
2023-04-02T07:27:36.570Z,98654.66
2023-04-02T07:30:38.284Z,98656.59
2023-04-02T07:33:41.185Z,98661.25
2023-04-02T07:36:43.654Z,98668.55
2023-04-02T07:39:45.324Z,98672.70
2023-04-02T07:42:46.843Z,98671.36
2023-04-02T07:45:50.407Z,98671.55
2023-04-02T07:48:52.080Z,98677.34
2023-04-02T07:51:53.678Z,98677.38
2023-04-02T07:54:55.329Z,98679.87
2023-04-02T07:57:58.965Z,98684.80
2023-04-02T08:01:01.445Z,98684.72
2023-04-02T08:04:04.605Z,98685.55
2023-04-02T08:07:06.224Z,98687.16
2023-04-02T08:10:10.394Z,98684.08
2023-04-02T08:13:12.045Z,98687.59
2023-04-02T08:16:13.784Z,98695.74
2023-04-02T08:19:15.470Z,98697.48
2023-04-02T08:22:17.012Z,98701.93
2023-04-02T08:25:18.573Z,98701.92
2023-04-02T08:28:21.650Z,98702.47
2023-04-02T08:31:23.350Z,98701.77
2023-04-02T08:34:25.698Z,98704.11
2023-04-02T08:37:27.306Z,98707.19
2023-04-02T08:40:39.795Z,98711.18
2023-04-02T08:44:09.408Z,98715.90
2023-04-02T08:47:13.736Z,98718.85
2023-04-02T08:50:36.552Z,98724.91
2023-04-02T08:53:39.078Z,98726.49
2023-04-02T08:56:44.360Z,98733.46
2023-04-02T08:59:46.169Z,98734.77
2023-04-02T09:02:55.167Z,98740.02
2023-04-02T09:05:58.860Z,98740.55
2023-04-02T09:09:00.606Z,98746.98
2023-04-02T09:12:02.934Z,98752.00
2023-04-02T09:15:10.933Z,98757.83
2023-04-02T09:18:19.554Z,98764.27
2023-04-02T09:21:21.257Z,98773.40
2023-04-02T09:24:22.850Z,98780.30
2023-04-02T09:27:30.244Z,98790.86
2023-04-02T09:30:31.749Z,98797.20
2023-04-02T09:33:46.435Z,98803.66
2023-04-02T09:36:48.144Z,98815.70
2023-04-02T09:39:49.941Z,98818.36
2023-04-02T09:43:12.757Z,98828.02
2023-04-02T09:46:24.932Z,98838.69
2023-04-02T09:49:29.346Z,98842.86
2023-04-02T09:52:31.025Z,98849.38
2023-04-02T09:55:32.610Z,98852.13
2023-04-02T09:58:34.113Z,98856.41
2023-04-02T10:01:38.274Z,98859.44
2023-04-02T10:04:43.583Z,98861.80
2023-04-02T10:07:49.749Z,98867.16
2023-04-02T10:10:53.281Z,98869.43
2023-04-02T10:13:59.387Z,98873.61
2023-04-02T10:17:22.655Z,98878.48
2023-04-02T10:20:27.063Z,98885.03
2023-04-02T10:23:30.717Z,98890.61
2023-04-02T10:26:38.329Z,98891.53
2023-04-02T10:30:05.366Z,98900.60
2023-04-02T10:33:15.364Z,98911.77
2023-04-02T10:36:41.839Z,98918.01
2023-04-02T10:39:47.827Z,98922.76
2023-04-02T10:43:19.394Z,98928.08
2023-04-02T10:46:28.583Z,98935.81
2023-04-02T10:49:41.379Z,98942.85
2023-04-02T10:52:48.549Z,98949.50
2023-04-02T10:55:56.482Z,98960.08
2023-04-02T10:59:21.500Z,98959.58
2023-04-02T11:02:46.501Z,98967.02
2023-04-02T11:05:53.935Z,98975.08
2023-04-02T11:09:02.751Z,98979.29
2023-04-02T11:12:05.235Z,98985.55
2023-04-02T11:15:17.123Z,98992.89
2023-04-02T11:18:27.340Z,98997.47
2023-04-02T11:21:59.656Z,99002.27
2023-04-02T11:25:02.994Z,99007.42
2023-04-02T11:28:29.887Z,99015.82
2023-04-02T11:31:31.669Z,99022.14
2023-04-02T11:34:42.504Z,99026.96
2023-04-02T11:37:45.318Z,99032.93
2023-04-02T11:40:51.632Z,99037.45
2023-04-02T11:44:00.588Z,99043.80
2023-04-02T11:47:25.219Z,99047.31
2023-04-02T11:50:52.945Z,99054.98
2023-04-02T11:53:54.889Z,99057.89
2023-04-02T11:57:01.810Z,99061.88
2023-04-02T12:00:06.562Z,99064.58
2023-04-02T12:03:17.299Z,99064.89
2023-04-02T12:06:38.466Z,99070.28
2023-04-02T12:09:52.990Z,99069.96
2023-04-02T12:12:54.548Z,99072.11
2023-04-02T12:15:57.023Z,99075.79
2023-04-02T12:18:59.515Z,99079.86
2023-04-02T12:22:01.761Z,99084.94
2023-04-02T12:25:18.334Z,99086.59
2023-04-02T12:28:21.526Z,99090.82
2023-04-02T12:31:24.552Z,99095.83
2023-04-02T12:34:28.946Z,99097.84
2023-04-02T12:37:30.973Z,99103.98
2023-04-02T12:40:32.518Z,99106.80
2023-04-02T12:43:35.014Z,99107.67
2023-04-02T12:46:36.626Z,99111.36
2023-04-02T12:49:39.230Z,99112.31
2023-04-02T12:52:44.969Z,99118.20
2023-04-02T12:55:48.728Z,99116.20
2023-04-02T12:58:58.526Z,99118.73
2023-04-02T13:02:03.838Z,99121.66
2023-04-02T13:05:05.604Z,99124.64
2023-04-02T13:08:07.104Z,99131.89
2023-04-02T13:11:09.201Z,99137.88
2023-04-02T13:14:19.220Z,99144.46
2023-04-02T13:17:42.293Z,99149.55
2023-04-02T13:20:55.074Z,99147.80
2023-04-02T13:23:56.629Z,99149.30
2023-04-02T13:26:59.151Z,99151.83
2023-04-02T13:30:08.298Z,99156.50
2023-04-02T13:33:09.934Z,99155.83
2023-04-02T13:36:14.636Z,99157.71
2023-04-02T13:39:16.322Z,99159.44
2023-04-02T13:42:17.882Z,99162.46
2023-04-02T13:45:28.048Z,99165.81
2023-04-02T13:48:29.781Z,99173.93
2023-04-02T13:51:35.723Z,99176.73
2023-04-02T13:54:46.963Z,99178.56
2023-04-02T13:57:48.637Z,99178.41
2023-04-02T14:00:50.341Z,99178.81
2023-04-02T14:03:53.424Z,99179.84
2023-04-02T14:07:14.010Z,99181.92
2023-04-02T14:10:43.841Z,99183.58
2023-04-02T14:14:06.580Z,99187.55
2023-04-02T14:17:37.484Z,99197.23
2023-04-02T14:20:48.704Z,99198.69
2023-04-02T14:24:08.900Z,99203.52
2023-04-02T14:27:32.709Z,99205.96
2023-04-02T14:31:02.141Z,99208.15
2023-04-02T14:34:32.218Z,99215.83
2023-04-02T14:37:45.890Z,99219.80
2023-04-02T14:40:50.056Z,99220.19
2023-04-02T14:43:54.791Z,99223.39
2023-04-02T14:47:02.220Z,99224.33
2023-04-02T14:50:12.809Z,99227.77
2023-04-02T14:53:20.145Z,99234.34
2023-04-02T14:56:24.205Z,99237.35
2023-04-02T14:59:29.072Z,99235.23
2023-04-02T15:02:41.422Z,99241.07
2023-04-02T15:05:49.743Z,99244.84
2023-04-02T15:09:09.314Z,99245.13
2023-04-02T15:12:23.996Z,99247.92
2023-04-02T15:15:39.357Z,99251.73
2023-04-02T15:18:42.315Z,99252.73
2023-04-02T15:22:02.180Z,99256.19
2023-04-02T15:25:13.659Z,99259.96
2023-04-02T15:28:26.999Z,99268.11
2023-04-02T15:31:28.720Z,99273.41
2023-04-02T15:34:33.293Z,99282.16
2023-04-02T15:37:44.188Z,99282.77
2023-04-02T15:40:48.714Z,99287.34
2023-04-02T15:44:22.621Z,99291.45
2023-04-02T15:47:59.444Z,99296.70
2023-04-02T15:51:15.140Z,99299.44
2023-04-02T15:54:37.063Z,99305.03
2023-04-02T15:57:57.467Z,99313.38
2023-04-02T16:01:17.694Z,99319.77
2023-04-02T16:04:25.594Z,99326.20
2023-04-02T16:07:56.423Z,99326.81
2023-04-02T16:10:58.047Z,99333.74
2023-04-02T16:14:18.363Z,99339.68
2023-04-02T16:17:25.870Z,99348.31
2023-04-02T16:20:40.502Z,99351.30
2023-04-02T16:23:42.359Z,99359.09
2023-04-02T16:26:59.225Z,99362.58
2023-04-02T16:30:16.554Z,99366.02
2023-04-02T16:33:25.822Z,99367.60
2023-04-02T16:36:50.615Z,99371.05
2023-04-02T16:40:28.868Z,99373.92
2023-04-02T16:43:38.586Z,99376.45
2023-04-02T16:46:52.313Z,99377.60
2023-04-02T16:50:02.918Z,99383.56
2023-04-02T16:53:15.562Z,99387.61
2023-04-02T16:56:49.618Z,99391.14
2023-04-02T17:00:09.638Z,99401.58
2023-04-02T17:03:20.400Z,99399.38
2023-04-02T17:06:32.072Z,99409.32
2023-04-02T17:09:49.670Z,99412.09
2023-04-02T17:13:02.919Z,99417.03
2023-04-02T17:16:19.020Z,99429.53
2023-04-02T17:19:21.082Z,99432.17
2023-04-02T17:22:23.082Z,99438.89
2023-04-02T17:25:28.499Z,99441.74
2023-04-02T17:28:32.575Z,99441.70
2023-04-02T17:31:34.804Z,99442.81
2023-04-02T17:34:36.555Z,99448.04
2023-04-02T17:37:43.390Z,99453.94
2023-04-02T17:41:14.540Z,99458.13
2023-04-02T17:44:25.233Z,99460.66
2023-04-02T17:48:11.726Z,99466.52
2023-04-02T17:51:42.764Z,99469.21
2023-04-02T17:54:50.436Z,99475.63
2023-04-02T17:57:57.943Z,99481.89
2023-04-02T18:01:41.917Z,99489.83
2023-04-02T18:05:12.027Z,99489.55
2023-04-02T18:08:25.947Z,99494.05
2023-04-02T18:11:52.781Z,99498.70
2023-04-02T18:15:06.882Z,99505.39
2023-04-02T18:18:19.333Z,99502.85
2023-04-02T18:21:24.193Z,99510.71
2023-04-02T18:25:00.643Z,99508.86
2023-04-02T18:28:12.366Z,99514.48
2023-04-02T18:31:27.039Z,99514.66
2023-04-02T18:34:44.077Z,99519.94
2023-04-02T18:37:58.757Z,99528.82
2023-04-02T18:41:21.964Z,99531.77
2023-04-02T18:44:35.484Z,99535.21
2023-04-02T18:47:46.388Z,99539.20
2023-04-02T18:50:48.795Z,99544.24
2023-04-02T18:54:09.598Z,99547.71
2023-04-02T18:57:15.742Z,99552.95
2023-04-02T19:00:40.512Z,99552.07
2023-04-02T19:03:49.555Z,99559.52
2023-04-02T19:06:55.172Z,99560.50
2023-04-02T19:10:03.045Z,99560.39
2023-04-02T19:13:15.869Z,99558.38
2023-04-02T19:16:25.357Z,99562.01
2023-04-02T19:19:29.504Z,99563.23
2023-04-02T19:22:50.063Z,99558.86
2023-04-02T19:26:05.263Z,99560.91
2023-04-02T19:29:35.153Z,99558.66
2023-04-02T19:32:45.837Z,99563.21
2023-04-02T19:35:53.968Z,99560.74
2023-04-02T19:39:01.393Z,99561.19
2023-04-02T19:42:16.564Z,99564.36
2023-04-02T19:45:37.684Z,99565.80
2023-04-02T19:49:00.589Z,99564.38
2023-04-02T19:52:02.469Z,99567.71
2023-04-02T19:55:04.464Z,99569.52
2023-04-02T19:58:18.895Z,99575.14
2023-04-02T20:01:21.574Z,99573.23
2023-04-02T20:04:23.363Z,99574.71
2023-04-02T20:07:25.267Z,99577.10
2023-04-02T20:10:26.809Z,99582.70
2023-04-02T20:13:29.055Z,99588.82
2023-04-02T20:16:30.679Z,99588.34
2023-04-02T20:19:32.292Z,99589.73
2023-04-02T20:22:33.944Z,99593.02
2023-04-02T20:25:35.636Z,99596.70
2023-04-02T20:28:37.155Z,99600.59
2023-04-02T20:31:38.727Z,99603.16
2023-04-02T20:34:44.610Z,99604.73
2023-04-02T20:37:46.164Z,99606.59
2023-04-02T20:40:47.749Z,99607.01
2023-04-02T20:43:50.635Z,99608.94
2023-04-02T20:46:52.249Z,99609.48
2023-04-02T20:49:53.901Z,99614.25
2023-04-02T20:52:58.128Z,99614.27
2023-04-02T20:56:04.764Z,99613.23
2023-04-02T20:59:06.465Z,99614.41
2023-04-02T21:02:09.322Z,99614.77
2023-04-02T21:05:10.925Z,99621.27
2023-04-02T21:08:12.648Z,99618.75
2023-04-02T21:11:14.828Z,99619.79
2023-04-02T21:14:17.164Z,99620.67
2023-04-02T21:17:18.835Z,99623.06
2023-04-02T21:20:20.540Z,99625.11
2023-04-02T21:23:22.301Z,99625.43
2023-04-02T21:26:24.293Z,99624.05
2023-04-02T21:29:25.843Z,99626.25
2023-04-02T21:32:27.501Z,99624.16
2023-04-02T21:35:28.984Z,99625.51
2023-04-02T21:38:30.512Z,99623.27
2023-04-02T21:41:37.739Z,99621.37
2023-04-02T21:44:39.381Z,99621.16
2023-04-02T21:47:40.951Z,99624.20
2023-04-02T21:50:42.511Z,99625.35
2023-04-02T21:53:44.965Z,99628.89
2023-04-02T21:56:47.574Z,99630.91
2023-04-02T21:59:49.188Z,99635.83
2023-04-02T22:02:50.881Z,99634.43
2023-04-02T22:06:09.522Z,99634.89
2023-04-02T22:09:13.655Z,99634.67
2023-04-02T22:12:15.221Z,99633.27
2023-04-02T22:15:17.040Z,99631.55
2023-04-02T22:18:18.483Z,99632.70
2023-04-02T22:21:20.485Z,99636.95
2023-04-02T22:24:22.152Z,99641.70
2023-04-02T22:27:23.709Z,99646.30
2023-04-02T22:30:25.335Z,99647.30
2023-04-02T22:33:27.061Z,99648.98
2023-04-02T22:36:29.553Z,99653.42
2023-04-02T22:39:31.300Z,99658.04
2023-04-02T22:42:33.519Z,99659.25
2023-04-02T22:45:35.046Z,99661.52
2023-04-02T22:48:37.026Z,99658.30
2023-04-02T22:51:38.642Z,99660.38
2023-04-02T22:54:40.231Z,99658.34
2023-04-02T22:57:42.826Z,99657.53
2023-04-02T23:00:45.089Z,99657.91
2023-04-02T23:03:46.704Z,99656.39
2023-04-02T23:06:48.446Z,99657.08
2023-04-02T23:09:49.979Z,99654.36
2023-04-02T23:12:51.673Z,99653.67
2023-04-02T23:15:53.545Z,99650.58
2023-04-02T23:18:55.393Z,99654.48
2023-04-02T23:21:57.284Z,99661.95
2023-04-02T23:24:58.922Z,99662.10
2023-04-02T23:28:00.463Z,99664.46
2023-04-02T23:31:03.390Z,99666.15
2023-04-02T23:34:05.033Z,99671.77
2023-04-02T23:37:06.545Z,99675.34
2023-04-02T23:40:09.068Z,99679.82
2023-04-02T23:43:10.627Z,99681.25
2023-04-02T23:46:12.308Z,99681.50
2023-04-02T23:49:13.963Z,99685.85
2023-04-02T23:52:15.599Z,99681.13
2023-04-02T23:55:17.267Z,99681.70
2023-04-02T23:58:18.765Z,99684.64
